Aviation Digital Data Service (ADDS)

Output produced by METARs form (0530 UTC 19 March 2019)
found at http://www.aviationweather.gov/metar/data/
 
Forecast for: GCLP (LAS PALMAS/GANDO, ES)
Text: TAF GCLP 190200Z 1903/2003 01020KT 9999 BKN035 TX22/1914Z TN16/1906Z
Forecast period: 0300 UTC 19 March 2019 to 0300 UTC 20 March 2019
Forecast type: FROM: standard forecast or significant change
Winds: from the N (10 degrees) at 23 MPH (20 knots; 10.3 m/s)
Visibility: 6 or more miles 10+ km)
Ceiling: 3500 feet AGL
Clouds: broken clouds at 3500 feet AGL
Weather: no significant weather forecast for this period